This is the latest recevied weather packets stored in our database for station/object AC0MR. If no packets are shown the sender has not sent any weather packets the latest 10 day(s).
| Time | Temp. | Humidity | Pressure | Rain* | Wind** | Luminosity | Snow |
|---|---|---|---|---|---|---|---|
| 1777337118 | 14.44° C | 84% | 1001.3 hPa | 0 mm | - | 3 W/m² | - |
| 1777336518 | 14.44° C | 85% | 1001.4 hPa | 0 mm | - | 5 W/m² | - |
| 1777335918 | 15° C | 85% | 1001.3 hPa | 0 mm | - | 10 W/m² | - |
| 1777335318 | 15° C | 85% | 1001 hPa | 0 mm | - | 18 W/m² | - |
| 1777334718 | 15.56° C | 85% | 1000.8 hPa | 0 mm | - | 21 W/m² | - |
| 1777334118 | 15.56° C | 85% | 1000.6 hPa | 0 mm | - | 39 W/m² | - |
| 1777333518 | 16.11° C | 85% | 1000.7 hPa | 4.32 mm | - | 70 W/m² | - |
| 1777332918 | 16.11° C | 86% | 1000.8 hPa | 6.6 mm | - | 45 W/m² | - |
| 1777332318 | 16.67° C | 86% | 1000.7 hPa | 7.62 mm | - | 42 W/m² | - |
| 1777331718 | 17.22° C | 86% | 1000.7 hPa | 7.62 mm | - | 174 W/m² | - |
| 1777331118 | 16.67° C | 83% | 1000.6 hPa | 7.62 mm | - | 137 W/m² | - |
| 1777330518 | 17.22° C | 79% | 1000.4 hPa | 7.62 mm | - | 21 W/m² | - |
| 1777329918 | 18.89° C | 75% | 999.9 hPa | 3.3 mm | - | 5 W/m² | - |
| 1777329318 | 21.11° C | 75% | 999.7 hPa | 1.02 mm | - | 8 W/m² | - |
| 1777328717 | 21.67° C | 72% | 999.3 hPa | 0 mm | - | 10 W/m² | - |
| 1777328118 | 21.67° C | 71% | 999.2 hPa | 0 mm | - | 16 W/m² | - |
| 1777327518 | 22.22° C | 70% | 999 hPa | 0 mm | - | 105 W/m² | - |
| 1777326920 | 22.22° C | 71% | 999.1 hPa | 0 mm | - | 253 W/m² | - |
| 1777326318 | 22.22° C | 71% | 999.1 hPa | 0 mm | - | 311 W/m² | - |
| 1777325720 | 22.22° C | 68% | 999.2 hPa | 0 mm | - | 178 W/m² | - |
| 1777325120 | 22.22° C | 70% | 999.2 hPa | 0 mm | - | 482 W/m² | - |
| 1777324520 | 22.22° C | 70% | 999 hPa | 0 mm | - | 389 W/m² | - |
| 1777323919 | 22.22° C | 70% | 998.8 hPa | 0 mm | - | 304 W/m² | - |
| 1777323320 | 22.22° C | 69% | 998.9 hPa | 0 mm | - | 403 W/m² | - |
| 1777322719 | 22.22° C | 72% | 998.7 hPa | 0 mm | - | 660 W/m² | - |
* Rain latest hour (hover to see other rain measurements)
** Current wind speed in m/s (hover to see current wind gust speed)